4V0

Rangely Airport

Rangely, Colorado, USA
METAR K4V0 181315Z AUTO 00000KT 10SM BKN050 OVC090 M03/M03 A2993 RMK AO2 T10301033
Observed Flight Rules
Jan-18 @ 13:15 UTC (32 minutes ago) Visual Flight Rules
Visibility Clouds
10 miles
  • Broken at 5,000' AGL
  • Overcast at 9,000' AGL
Temperatures Readings
Current -3°C / 27°F
Dewpoint -3°C / 27°F
Humidity 100%
Altimeter 29.93" Hg
Pressure 1013.52 hPa
Elevation 1608
METAR K4V0 181315Z AUTO 00000KT 10SM BKN050 OVC090 M03/M03 A2993 RMK AO2 T10301033
Observed Flight Rules
Jan-18 @ 13:15 UTC
(32 minutes ago)
VFR
Clouds
  • Broken at 5,000' AGL
  • Overcast at 9,000' AGL
Temperature Dewpoint
-3°C / 27°F -3°C / 27°F
Humidity Altimeter Pressure
100% 29.93" Hg 1013.52 hPa